createdAt,value
2022-08-19T00:00:17.522Z,1007.81
2022-08-19T00:01:17.489Z,1007.78
2022-08-19T00:02:17.465Z,1007.85
2022-08-19T00:03:17.412Z,1007.82
2022-08-19T00:04:17.425Z,1007.82
2022-08-19T00:05:17.338Z,1007.84
2022-08-19T00:06:17.303Z,1007.84
2022-08-19T00:07:17.263Z,1007.83
2022-08-19T00:08:17.234Z,1007.83
2022-08-19T00:09:17.187Z,1007.87
2022-08-19T00:10:17.150Z,1007.87
2022-08-19T00:11:18.790Z,1007.84
2022-08-19T00:12:17.078Z,1007.85
2022-08-19T00:13:17.052Z,1007.88
2022-08-19T00:14:17.000Z,1007.84
2022-08-19T00:15:16.963Z,1007.83
2022-08-19T00:16:16.925Z,1007.81
2022-08-19T00:17:16.888Z,1007.83
2022-08-19T00:18:16.850Z,1007.80
2022-08-19T00:19:16.835Z,1007.83
2022-08-19T00:20:16.775Z,1007.84
2022-08-19T00:21:16.740Z,1007.83
2022-08-19T00:22:16.702Z,1007.84
2022-08-19T00:23:16.664Z,1007.84
2022-08-19T00:24:16.626Z,1007.83
2022-08-19T00:25:16.603Z,1007.81
2022-08-19T00:26:16.551Z,1007.80
2022-08-19T00:27:25.709Z,1007.76
2022-08-19T00:28:16.476Z,1007.79
2022-08-19T00:29:16.442Z,1007.76
2022-08-19T00:30:16.428Z,1007.80
2022-08-19T00:31:16.365Z,1007.80
2022-08-19T00:32:16.328Z,1007.78
2022-08-19T00:33:16.293Z,1007.79
2022-08-19T00:34:16.250Z,1007.77
2022-08-19T00:35:16.215Z,1007.80
2022-08-19T00:36:16.187Z,1007.77
2022-08-19T00:37:16.141Z,1007.76
2022-08-19T00:38:16.117Z,1007.78
2022-08-19T00:39:16.065Z,1007.77
2022-08-19T00:40:16.027Z,1007.78
2022-08-19T00:41:15.995Z,1007.77
2022-08-19T00:42:15.952Z,1007.75
2022-08-19T00:43:15.916Z,1007.80
2022-08-19T00:44:15.892Z,1007.83
2022-08-19T00:45:15.843Z,1007.81
2022-08-19T00:46:15.801Z,1007.81
2022-08-19T00:47:16.177Z,1007.82
2022-08-19T00:48:15.727Z,1007.80
2022-08-19T00:49:15.691Z,1007.74
2022-08-19T00:50:15.669Z,1007.75
2022-08-19T00:51:15.615Z,1007.75
2022-08-19T00:52:15.578Z,1007.79
2022-08-19T00:53:15.541Z,1007.74
2022-08-19T00:54:15.502Z,1007.74
2022-08-19T00:55:15.468Z,1007.75
2022-08-19T00:56:15.441Z,1007.76
2022-08-19T00:57:15.391Z,1007.74
2022-08-19T00:58:15.353Z,1007.72
2022-08-19T00:59:15.316Z,1007.69
2022-08-19T01:00:15.295Z,1007.65
2022-08-19T01:01:15.284Z,1007.69
2022-08-19T01:02:15.203Z,1007.63
2022-08-19T01:03:15.165Z,1007.68
2022-08-19T01:04:15.128Z,1007.70
2022-08-19T01:05:15.094Z,1007.68
2022-08-19T01:06:15.064Z,1007.71
2022-08-19T01:07:17.410Z,1007.73
2022-08-19T01:08:14.980Z,1007.75
2022-08-19T01:09:14.943Z,1007.79
2022-08-19T01:10:14.914Z,1007.82
2022-08-19T01:11:14.866Z,1007.83
2022-08-19T01:12:14.829Z,1007.81
2022-08-19T01:13:14.790Z,1007.81
2022-08-19T01:14:14.753Z,1007.80
2022-08-19T01:15:14.716Z,1007.78
2022-08-19T01:16:14.703Z,1007.78
2022-08-19T01:17:14.640Z,1007.77
2022-08-19T01:18:14.602Z,1007.79
2022-08-19T01:19:14.566Z,1007.77
2022-08-19T01:20:14.528Z,1007.80
2022-08-19T01:21:14.489Z,1007.78
2022-08-19T01:22:16.851Z,1007.84
2022-08-19T01:23:14.420Z,1007.82
2022-08-19T01:24:14.421Z,1007.84
2022-08-19T01:25:15.148Z,1007.82
2022-08-19T01:26:14.328Z,1007.81
2022-08-19T01:27:14.281Z,1007.77
2022-08-19T01:28:14.236Z,1007.79
2022-08-19T01:29:14.199Z,1007.78
2022-08-19T01:30:14.157Z,1007.77
2022-08-19T01:31:26.495Z,1007.78
2022-08-19T01:32:32.098Z,1007.77
2022-08-19T01:33:14.052Z,1007.77
2022-08-19T01:34:14.004Z,1007.75
2022-08-19T01:35:13.978Z,1007.74
2022-08-19T01:36:13.928Z,1007.75
2022-08-19T01:37:13.891Z,1007.76
2022-08-19T01:38:13.851Z,1007.73
2022-08-19T01:39:13.828Z,1007.73
2022-08-19T01:40:13.878Z,1007.72
2022-08-19T01:41:13.739Z,1007.68
2022-08-19T01:42:13.701Z,1007.69
2022-08-19T01:43:13.663Z,1007.69
2022-08-19T01:44:18.539Z,1007.69
2022-08-19T01:45:13.587Z,1007.73
2022-08-19T01:46:13.550Z,1007.72
2022-08-19T01:47:13.512Z,1007.64
2022-08-19T01:48:13.475Z,1007.68
2022-08-19T01:49:13.442Z,1007.70
2022-08-19T01:50:13.418Z,1007.72
2022-08-19T01:51:13.364Z,1007.72
2022-08-19T01:52:13.326Z,1007.73
2022-08-19T01:53:13.295Z,1007.74
2022-08-19T01:54:13.246Z,1007.72
2022-08-19T01:55:13.213Z,1007.75
2022-08-19T01:56:13.193Z,1007.72
2022-08-19T01:57:13.137Z,1007.73
2022-08-19T01:58:13.104Z,1007.69
2022-08-19T01:59:13.062Z,1007.69
2022-08-19T02:00:13.025Z,1007.67
2022-08-19T02:01:13.037Z,1007.65
2022-08-19T02:02:12.948Z,1007.65
2022-08-19T02:03:12.913Z,1007.63
2022-08-19T02:04:12.874Z,1007.64
2022-08-19T02:05:12.841Z,1007.59
2022-08-19T02:06:12.810Z,1007.60
2022-08-19T02:07:12.760Z,1007.58
2022-08-19T02:08:12.723Z,1007.60
2022-08-19T02:09:12.685Z,1007.55
2022-08-19T02:10:12.645Z,1007.59
2022-08-19T02:11:12.609Z,1007.55
2022-08-19T02:12:12.586Z,1007.56
2022-08-19T02:13:12.537Z,1007.54
2022-08-19T02:14:12.496Z,1007.56
2022-08-19T02:15:12.459Z,1007.51
2022-08-19T02:16:12.421Z,1007.57
2022-08-19T02:17:12.382Z,1007.59
2022-08-19T02:18:12.356Z,1007.58
2022-08-19T02:19:12.309Z,1007.62
2022-08-19T02:20:12.271Z,1007.64
2022-08-19T02:21:12.231Z,1007.65
2022-08-19T02:22:12.194Z,1007.64
2022-08-19T02:23:13.947Z,1007.63
2022-08-19T02:24:12.132Z,1007.68
2022-08-19T02:25:12.082Z,1007.67
2022-08-19T02:26:12.042Z,1007.63
2022-08-19T02:27:12.008Z,1007.65
2022-08-19T02:28:15.518Z,1007.62
2022-08-19T02:29:11.930Z,1007.63
2022-08-19T02:30:14.128Z,1007.64
2022-08-19T02:31:11.862Z,1007.62
2022-08-19T02:32:11.822Z,1007.60
2022-08-19T02:33:11.780Z,1007.59
2022-08-19T02:34:11.742Z,1007.61
2022-08-19T02:35:12.288Z,1007.61
2022-08-19T02:36:11.681Z,1007.57
2022-08-19T02:37:11.626Z,1007.59
2022-08-19T02:38:11.596Z,1007.58
2022-08-19T02:39:11.553Z,1007.62
2022-08-19T02:40:12.497Z,1007.62
2022-08-19T02:41:11.495Z,1007.64
2022-08-19T02:42:11.452Z,1007.65
2022-08-19T02:43:11.403Z,1007.67
2022-08-19T02:44:28.618Z,1007.73
2022-08-19T02:45:11.326Z,1007.78
2022-08-19T02:46:11.300Z,1007.83
2022-08-19T02:47:11.251Z,1007.79
2022-08-19T02:48:21.027Z,1007.82
2022-08-19T02:49:11.171Z,1007.79
2022-08-19T02:50:11.151Z,1007.84
2022-08-19T02:51:11.110Z,1007.88
2022-08-19T02:52:11.065Z,1007.87
2022-08-19T02:53:11.023Z,1007.86
2022-08-19T02:54:10.987Z,1007.87
2022-08-19T02:55:10.958Z,1007.89
2022-08-19T02:56:10.911Z,1007.85
2022-08-19T02:57:10.874Z,1007.88
2022-08-19T02:58:10.835Z,1007.89
2022-08-19T02:59:11.219Z,1007.87
2022-08-19T03:00:10.760Z,1007.86
2022-08-19T03:01:10.830Z,1007.89
2022-08-19T03:02:10.683Z,1007.90
2022-08-19T03:03:10.648Z,1007.91
2022-08-19T03:04:10.612Z,1007.91
2022-08-19T03:05:10.573Z,1007.89
2022-08-19T03:06:10.534Z,1007.86
2022-08-19T03:07:11.203Z,1007.84
2022-08-19T03:08:10.459Z,1007.85
2022-08-19T03:09:10.417Z,1007.84
2022-08-19T03:10:10.385Z,1007.86
2022-08-19T03:11:10.344Z,1007.83
2022-08-19T03:12:10.307Z,1007.83
2022-08-19T03:13:10.281Z,1007.82
2022-08-19T03:14:10.248Z,1007.82
2022-08-19T03:15:10.190Z,1007.80
2022-08-19T03:16:18.193Z,1007.79
2022-08-19T03:17:10.118Z,1007.83
2022-08-19T03:18:10.080Z,1007.81
2022-08-19T03:19:10.100Z,1007.80
2022-08-19T03:20:10.009Z,1007.82
2022-08-19T03:21:12.328Z,1007.81
2022-08-19T03:22:09.929Z,1007.82
2022-08-19T03:23:09.915Z,1007.81
2022-08-19T03:24:09.858Z,1007.81
2022-08-19T03:25:09.834Z,1007.82
2022-08-19T03:26:16.668Z,1007.81
2022-08-19T03:27:09.739Z,1007.78
2022-08-19T03:28:09.707Z,1007.75
2022-08-19T03:29:09.663Z,1007.76
2022-08-19T03:30:11.653Z,1007.77
2022-08-19T03:31:42.110Z,1007.80
2022-08-19T03:32:09.565Z,1007.82
2022-08-19T03:33:09.520Z,1007.80
2022-08-19T03:34:09.477Z,1007.76
2022-08-19T03:35:09.434Z,1007.78
2022-08-19T03:36:09.407Z,1007.79
2022-08-19T03:37:09.387Z,1007.80
2022-08-19T03:38:09.324Z,1007.84
2022-08-19T03:39:09.290Z,1007.81
2022-08-19T03:40:09.312Z,1007.84
2022-08-19T03:41:09.209Z,1007.90
2022-08-19T03:42:33.075Z,1007.86
2022-08-19T03:43:09.148Z,1007.88
2022-08-19T03:44:09.112Z,1007.87
2022-08-19T03:45:09.059Z,1007.89
2022-08-19T03:46:09.021Z,1007.91
2022-08-19T03:47:08.983Z,1007.85
2022-08-19T03:48:08.943Z,1007.90
2022-08-19T03:49:08.923Z,1007.86
2022-08-19T03:50:08.873Z,1007.87
2022-08-19T03:51:08.831Z,1007.88
2022-08-19T03:52:08.796Z,1007.87
2022-08-19T03:53:08.752Z,1007.89
2022-08-19T03:54:08.722Z,1007.91
2022-08-19T03:55:08.691Z,1007.90
2022-08-19T03:56:08.655Z,1007.92
2022-08-19T03:57:08.607Z,1007.91
2022-08-19T03:58:08.567Z,1007.97
2022-08-19T03:59:08.528Z,1007.94
2022-08-19T04:00:13.462Z,1007.93
2022-08-19T04:01:08.483Z,1007.95
2022-08-19T04:02:08.432Z,1007.90
2022-08-19T04:03:08.386Z,1007.93
2022-08-19T04:04:08.343Z,1007.92
2022-08-19T04:05:08.306Z,1007.91
2022-08-19T04:06:08.262Z,1007.96
2022-08-19T04:07:08.226Z,1007.94
2022-08-19T04:08:13.310Z,1007.96
2022-08-19T04:09:08.154Z,1007.97
2022-08-19T04:10:08.111Z,1007.95
2022-08-19T04:11:08.080Z,1007.99
2022-08-19T04:12:08.040Z,1007.97
2022-08-19T04:13:08.001Z,1007.97
2022-08-19T04:14:07.982Z,1008.00
2022-08-19T04:15:07.925Z,1008.01
2022-08-19T04:16:07.891Z,1008.01
2022-08-19T04:17:07.851Z,1008.03
2022-08-19T04:18:07.813Z,1008.02
2022-08-19T04:19:07.777Z,1008.00
2022-08-19T04:20:07.759Z,1007.97
2022-08-19T04:21:07.707Z,1007.94
2022-08-19T04:22:07.669Z,1007.89
2022-08-19T04:23:07.624Z,1007.91
2022-08-19T04:24:07.584Z,1007.89
2022-08-19T04:25:07.558Z,1007.88
2022-08-19T04:26:07.528Z,1007.88
2022-08-19T04:27:07.475Z,1007.92
2022-08-19T04:28:07.436Z,1007.94
2022-08-19T04:29:12.124Z,1007.97
2022-08-19T04:30:07.360Z,1007.99
2022-08-19T04:31:07.333Z,1008.01
2022-08-19T04:32:09.255Z,1008.04
2022-08-19T04:33:07.251Z,1008.05
2022-08-19T04:34:07.205Z,1008.08
2022-08-19T04:35:16.986Z,1008.06
2022-08-19T04:36:07.137Z,1008.05
2022-08-19T04:37:07.103Z,1008.03
2022-08-19T04:38:07.056Z,1008.05
2022-08-19T04:39:07.027Z,1008.02
2022-08-19T04:40:07.038Z,1008.01
2022-08-19T04:41:06.939Z,1008.05
2022-08-19T04:42:06.907Z,1008.03
2022-08-19T04:43:06.878Z,1008.04
2022-08-19T04:44:06.844Z,1008.03
2022-08-19T04:45:09.251Z,1008.06
2022-08-19T04:46:06.761Z,1008.07
2022-08-19T04:47:11.427Z,1008.06
2022-08-19T04:48:26.684Z,1008.06
2022-08-19T04:49:12.966Z,1008.10
2022-08-19T04:50:06.600Z,1008.11
2022-08-19T04:51:06.566Z,1008.14
2022-08-19T04:52:06.533Z,1008.17
2022-08-19T04:53:06.501Z,1008.18
2022-08-19T04:54:06.453Z,1008.23
2022-08-19T04:55:06.409Z,1008.26
2022-08-19T04:56:06.381Z,1008.21
2022-08-19T04:57:06.364Z,1008.22
2022-08-19T04:58:06.327Z,1008.18
2022-08-19T04:59:06.320Z,1008.18
2022-08-19T05:00:06.237Z,1008.17
2022-08-19T05:01:06.291Z,1008.23
2022-08-19T05:02:06.181Z,1008.22
2022-08-19T05:03:07.697Z,1008.25
2022-08-19T05:04:06.075Z,1008.22
2022-08-19T05:05:06.049Z,1008.26
2022-08-19T05:06:06.022Z,1008.32
2022-08-19T05:07:05.987Z,1008.33
2022-08-19T05:08:05.929Z,1008.37
2022-08-19T05:09:06.108Z,1008.38
2022-08-19T05:10:05.895Z,1008.41
2022-08-19T05:11:05.871Z,1008.36
2022-08-19T05:12:05.798Z,1008.42
2022-08-19T05:13:05.759Z,1008.42
2022-08-19T05:14:05.699Z,1008.42
2022-08-19T05:15:05.661Z,1008.45
2022-08-19T05:16:05.646Z,1008.52
2022-08-19T05:17:26.177Z,1008.54
2022-08-19T05:18:05.576Z,1008.63
2022-08-19T05:19:05.539Z,1008.64
2022-08-19T05:20:05.488Z,1008.64
2022-08-19T05:21:05.491Z,1008.66
2022-08-19T05:22:05.413Z,1008.68
2022-08-19T05:23:18.528Z,1008.68
2022-08-19T05:24:05.371Z,1008.69
2022-08-19T05:25:12.803Z,1008.67
2022-08-19T05:26:05.258Z,1008.70
2022-08-19T05:27:05.314Z,1008.68
2022-08-19T05:28:05.204Z,1008.70
2022-08-19T05:29:05.142Z,1008.69
2022-08-19T05:30:05.121Z,1008.70
2022-08-19T05:31:05.073Z,1008.69
2022-08-19T05:32:05.037Z,1008.77
2022-08-19T05:33:05.019Z,1008.77
2022-08-19T05:34:04.954Z,1008.81
2022-08-19T05:35:04.911Z,1008.79
2022-08-19T05:36:04.886Z,1008.81
2022-08-19T05:37:04.848Z,1008.84
2022-08-19T05:38:04.805Z,1008.85
2022-08-19T05:39:04.779Z,1008.86
2022-08-19T05:40:04.871Z,1008.86
2022-08-19T05:41:04.709Z,1008.86
2022-08-19T05:42:04.688Z,1008.84
2022-08-19T05:43:04.626Z,1008.82
2022-08-19T05:44:04.595Z,1008.84
2022-08-19T05:45:04.599Z,1008.86
2022-08-19T05:46:04.527Z,1008.84
2022-08-19T05:47:04.478Z,1008.84
2022-08-19T05:48:04.463Z,1008.89
2022-08-19T05:49:04.491Z,1008.90
2022-08-19T05:50:05.050Z,1008.93
2022-08-19T05:51:04.681Z,1008.93
2022-08-19T05:52:05.701Z,1008.90
2022-08-19T05:53:05.537Z,1008.95
2022-08-19T05:54:04.229Z,1008.99
2022-08-19T05:55:04.204Z,1008.93
2022-08-19T05:56:04.165Z,1008.94
2022-08-19T05:57:04.162Z,1008.95
2022-08-19T05:58:04.121Z,1008.96
2022-08-19T05:59:04.046Z,1008.97
2022-08-19T06:00:04.038Z,1008.97
2022-08-19T06:01:03.979Z,1008.94
2022-08-19T06:02:03.954Z,1008.97
2022-08-19T06:03:13.063Z,1008.92
2022-08-19T06:04:03.879Z,1008.93
2022-08-19T06:05:03.840Z,1008.94
2022-08-19T06:06:03.802Z,1008.93
2022-08-19T06:07:20.929Z,1008.92
2022-08-19T06:08:03.742Z,1008.93
2022-08-19T06:09:03.704Z,1008.94
2022-08-19T06:10:03.677Z,1008.94
2022-08-19T06:11:03.635Z,1008.91
2022-08-19T06:12:03.719Z,1008.87
2022-08-19T06:13:03.759Z,1008.90
2022-08-19T06:14:10.330Z,1008.91
2022-08-19T06:15:03.492Z,1008.91
2022-08-19T06:16:03.474Z,1008.93
2022-08-19T06:17:06.835Z,1008.98
2022-08-19T06:18:03.387Z,1008.97
2022-08-19T06:19:24.458Z,1008.94
2022-08-19T06:20:04.242Z,1008.96
2022-08-19T06:21:24.291Z,1009.05
2022-08-19T06:22:03.256Z,1009.03
2022-08-19T06:23:03.219Z,1009.07
2022-08-19T06:24:03.181Z,1009.11
2022-08-19T06:25:03.154Z,1009.02
2022-08-19T06:26:03.100Z,1009.07
2022-08-19T06:27:03.075Z,1009.04
2022-08-19T06:28:18.658Z,1009.01
2022-08-19T06:29:03.009Z,1009.00
2022-08-19T06:30:05.693Z,1008.97
2022-08-19T06:31:02.931Z,1008.91
2022-08-19T06:32:02.904Z,1008.82
2022-08-19T06:33:02.862Z,1008.82
2022-08-19T06:34:02.826Z,1008.80
2022-08-19T06:35:02.802Z,1008.78
2022-08-19T06:36:02.760Z,1008.76
2022-08-19T06:37:02.728Z,1008.79
2022-08-19T06:38:02.704Z,1008.76
2022-08-19T06:39:02.655Z,1008.78
2022-08-19T06:40:02.692Z,1008.82
2022-08-19T06:41:02.615Z,1008.81
2022-08-19T06:42:02.565Z,1008.85
2022-08-19T06:43:02.634Z,1008.89
2022-08-19T06:44:02.487Z,1008.93
2022-08-19T06:45:02.457Z,1008.94
2022-08-19T06:46:02.928Z,1008.93
2022-08-19T06:47:02.426Z,1008.96
2022-08-19T06:48:02.388Z,1008.97
2022-08-19T06:49:02.314Z,1008.95
2022-08-19T06:50:03.131Z,1008.96
2022-08-19T06:51:02.252Z,1008.92
2022-08-19T06:52:02.216Z,1008.92
2022-08-19T06:53:04.411Z,1008.91
2022-08-19T06:54:02.150Z,1008.87
2022-08-19T06:55:02.118Z,1008.91
2022-08-19T06:56:02.078Z,1008.87
2022-08-19T06:57:02.047Z,1008.89
2022-08-19T06:58:02.020Z,1008.87
2022-08-19T06:59:01.962Z,1008.91
2022-08-19T07:00:02.051Z,1008.88
2022-08-19T07:01:03.443Z,1008.90
2022-08-19T07:02:01.860Z,1008.91
2022-08-19T07:03:04.504Z,1008.89
2022-08-19T07:04:01.797Z,1008.94
2022-08-19T07:05:01.771Z,1008.94
2022-08-19T07:06:01.725Z,1008.95
2022-08-19T07:07:20.089Z,1008.99
2022-08-19T07:08:04.804Z,1008.96
2022-08-19T07:09:01.627Z,1008.97
2022-08-19T07:10:02.882Z,1008.94
2022-08-19T07:11:01.693Z,1008.92
2022-08-19T07:12:01.518Z,1008.94
2022-08-19T07:13:01.473Z,1008.97
2022-08-19T07:14:01.450Z,1009.04
2022-08-19T07:15:01.447Z,1009.07
2022-08-19T07:16:01.380Z,1009.08
2022-08-19T07:17:01.337Z,1009.08
2022-08-19T07:18:01.300Z,1009.04
2022-08-19T07:19:04.845Z,1009.03
2022-08-19T07:20:06.745Z,1009.08
2022-08-19T07:21:01.204Z,1009.13
2022-08-19T07:22:01.158Z,1009.21
2022-08-19T07:23:01.121Z,1009.19
2022-08-19T07:24:03.023Z,1009.20
2022-08-19T07:25:01.052Z,1009.18
2022-08-19T07:26:01.091Z,1009.20
2022-08-19T07:27:00.993Z,1009.22
2022-08-19T07:28:01.476Z,1009.23
2022-08-19T07:29:00.917Z,1009.23
2022-08-19T07:30:00.875Z,1009.22
2022-08-19T07:31:00.843Z,1009.25
2022-08-19T07:32:00.894Z,1009.25
2022-08-19T07:33:03.624Z,1009.26
2022-08-19T07:34:00.737Z,1009.26
2022-08-19T07:35:00.702Z,1009.24
2022-08-19T07:36:00.671Z,1009.23
2022-08-19T07:37:00.655Z,1009.26
2022-08-19T07:38:00.594Z,1009.25
2022-08-19T07:39:00.562Z,1009.29
2022-08-19T07:40:00.624Z,1009.35
2022-08-19T07:41:00.490Z,1009.38
2022-08-19T07:42:00.468Z,1009.39
2022-08-19T07:43:00.422Z,1009.40
2022-08-19T07:44:00.386Z,1009.39
2022-08-19T07:45:00.349Z,1009.41
2022-08-19T07:46:00.395Z,1009.40
2022-08-19T07:47:00.281Z,1009.42
2022-08-19T07:48:00.616Z,1009.51
2022-08-19T07:49:00.210Z,1009.51
2022-08-19T07:50:00.181Z,1009.59
2022-08-19T07:51:00.138Z,1009.58
2022-08-19T07:52:00.106Z,1009.60
2022-08-19T07:53:00.072Z,1009.61
2022-08-19T07:54:00.045Z,1009.63
2022-08-19T07:54:59.999Z,1009.68
2022-08-19T07:55:59.965Z,1009.80
2022-08-19T07:56:59.929Z,1009.89
2022-08-19T07:57:59.895Z,1009.93
2022-08-19T07:58:59.863Z,1009.93
2022-08-19T07:59:59.836Z,1009.93
2022-08-19T08:00:59.799Z,1009.89
2022-08-19T08:01:59.797Z,1009.94
2022-08-19T08:02:59.724Z,1009.97
2022-08-19T08:03:59.689Z,1010.02
2022-08-19T08:04:59.653Z,1010.09
2022-08-19T08:05:59.619Z,1010.15
2022-08-19T08:06:59.591Z,1010.28
2022-08-19T08:07:59.547Z,1010.30
2022-08-19T08:08:59.516Z,1010.37
2022-08-19T08:09:59.496Z,1010.41
2022-08-19T08:10:59.446Z,1010.42
2022-08-19T08:12:01.922Z,1010.45
2022-08-19T08:13:10.275Z,1010.47
2022-08-19T08:14:00.908Z,1010.49
2022-08-19T08:14:59.316Z,1010.52
2022-08-19T08:15:59.278Z,1010.54
2022-08-19T08:16:59.263Z,1010.53
2022-08-19T08:17:59.212Z,1010.62
2022-08-19T08:18:59.183Z,1010.56
2022-08-19T08:19:59.149Z,1010.44
2022-08-19T08:20:59.124Z,1010.42
2022-08-19T08:21:59.084Z,1010.48
2022-08-19T08:22:59.065Z,1010.34
2022-08-19T08:24:58.990Z,1010.42
2022-08-19T08:25:58.975Z,1010.51
2022-08-19T08:26:58.930Z,1010.55
2022-08-19T08:27:58.894Z,1010.44
2022-08-19T08:28:58.865Z,1010.23
2022-08-19T08:29:58.844Z,1010.05
2022-08-19T08:30:58.811Z,1009.96
2022-08-19T08:32:00.121Z,1009.87
2022-08-19T08:32:58.738Z,1009.84
2022-08-19T08:33:58.707Z,1009.89
2022-08-19T08:34:58.676Z,1009.87
2022-08-19T08:35:58.656Z,1009.82
2022-08-19T08:36:58.614Z,1009.86
2022-08-19T08:37:58.580Z,1009.92
2022-08-19T08:39:58.535Z,1009.91
2022-08-19T08:40:58.502Z,1010.07
2022-08-19T08:41:58.453Z,1010.12
2022-08-19T08:42:58.424Z,1010.16
2022-08-19T08:43:58.583Z,1010.11
2022-08-19T08:45:58.326Z,1010.27
2022-08-19T08:46:58.307Z,1010.28
2022-08-19T08:47:58.320Z,1010.37
2022-08-19T08:48:58.233Z,1010.33
2022-08-19T08:49:58.198Z,1010.42
2022-08-19T08:50:58.170Z,1010.40
2022-08-19T08:51:59.374Z,1010.37
2022-08-19T08:52:58.114Z,1010.34
2022-08-19T08:53:58.072Z,1010.29
2022-08-19T08:54:58.042Z,1010.23
2022-08-19T08:55:58.003Z,1010.21
2022-08-19T08:56:57.980Z,1010.16
2022-08-19T08:57:57.945Z,1010.18
2022-08-19T08:58:57.925Z,1010.36
2022-08-19T08:59:57.881Z,1010.39
2022-08-19T09:00:57.852Z,1010.26
2022-08-19T09:01:57.855Z,1010.19
2022-08-19T09:02:57.813Z,1009.95
2022-08-19T09:04:02.969Z,1010.11
2022-08-19T09:04:57.727Z,1010.27
2022-08-19T09:05:57.695Z,1010.26
2022-08-19T09:06:57.665Z,1010.23
2022-08-19T09:07:57.907Z,1010.22
2022-08-19T09:08:57.599Z,1010.15
2022-08-19T09:09:57.572Z,1010.04
2022-08-19T09:10:57.542Z,1009.96
2022-08-19T09:11:57.512Z,1010.02
2022-08-19T09:12:57.485Z,1009.97
2022-08-19T09:13:57.460Z,1009.87
2022-08-19T09:14:57.418Z,1009.81
2022-08-19T09:15:57.392Z,1009.74
2022-08-19T09:16:57.357Z,1009.79
2022-08-19T09:17:57.327Z,1009.80
2022-08-19T09:18:57.296Z,1009.79
2022-08-19T09:19:57.274Z,1009.80
2022-08-19T09:20:57.230Z,1009.81
2022-08-19T09:21:57.201Z,1009.83
2022-08-19T09:22:57.173Z,1009.88
2022-08-19T09:23:57.136Z,1009.91
2022-08-19T09:24:57.116Z,1009.96
2022-08-19T09:25:57.087Z,1010.08
2022-08-19T09:26:57.039Z,1010.07
2022-08-19T09:28:01.177Z,1010.00
2022-08-19T09:28:56.977Z,1010.06
2022-08-19T09:29:56.943Z,1010.10
2022-08-19T09:30:56.913Z,1010.09
2022-08-19T09:31:56.894Z,1010.12
2022-08-19T09:32:56.851Z,1010.15
2022-08-19T09:33:56.815Z,1010.14
2022-08-19T09:34:56.786Z,1010.16
2022-08-19T09:35:56.754Z,1010.14
2022-08-19T09:36:56.721Z,1010.14
2022-08-19T09:37:57.346Z,1010.22
2022-08-19T09:38:56.676Z,1010.21
2022-08-19T09:39:56.652Z,1010.15
2022-08-19T09:40:56.592Z,1010.13
2022-08-19T09:41:56.562Z,1010.19
2022-08-19T09:42:56.533Z,1010.12
2022-08-19T09:43:56.511Z,1010.21
2022-08-19T09:44:56.473Z,1010.16
2022-08-19T09:45:56.440Z,1010.22
2022-08-19T09:46:56.410Z,1010.17
2022-08-19T09:47:56.524Z,1010.18
2022-08-19T09:48:56.346Z,1010.20
2022-08-19T09:49:56.323Z,1010.14
2022-08-19T09:50:56.285Z,1010.15
2022-08-19T09:51:56.266Z,1010.14
2022-08-19T09:52:57.714Z,1010.12
2022-08-19T09:53:56.196Z,1010.10
2022-08-19T09:54:56.165Z,1010.04
2022-08-19T09:55:56.132Z,1010.05
2022-08-19T09:56:56.104Z,1010.00
2022-08-19T09:57:56.079Z,1010.00
2022-08-19T09:58:56.069Z,1009.97
2022-08-19T09:59:56.015Z,1010.01
2022-08-19T10:00:56.036Z,1010.01
2022-08-19T10:01:55.951Z,1010.07
2022-08-19T10:02:55.918Z,1010.09
2022-08-19T10:03:55.905Z,1010.12
2022-08-19T10:04:55.861Z,1010.15
2022-08-19T10:05:55.827Z,1010.18
2022-08-19T10:06:55.800Z,1010.16
2022-08-19T10:07:56.898Z,1010.22
2022-08-19T10:08:55.754Z,1010.25
2022-08-19T10:09:55.721Z,1010.27
2022-08-19T10:10:55.690Z,1010.34
2022-08-19T10:11:55.647Z,1010.26
2022-08-19T10:12:55.621Z,1010.15
2022-08-19T10:13:55.584Z,1010.24
2022-08-19T10:14:55.557Z,1010.14
2022-08-19T10:15:55.751Z,1010.20
2022-08-19T10:16:55.496Z,1010.30
2022-08-19T10:17:55.667Z,1010.16
2022-08-19T10:22:00.064Z,1009.81
2022-08-19T10:22:19.346Z,1009.84
2022-08-19T10:23:19.189Z,1009.80
2022-08-19T10:24:19.160Z,1009.80
2022-08-19T10:25:19.129Z,1009.77
2022-08-19T10:26:19.150Z,1009.69
2022-08-19T10:27:19.082Z,1009.70
2022-08-19T10:28:19.097Z,1009.72
2022-08-19T10:29:32.660Z,1009.67
2022-08-19T10:30:18.977Z,1009.91
2022-08-19T10:31:19.475Z,1009.72
2022-08-19T10:32:18.939Z,1009.87
2022-08-19T10:33:19.256Z,1009.92
2022-08-19T10:34:28.543Z,1009.72
2022-08-19T10:35:21.765Z,1009.81
2022-08-19T10:36:18.945Z,1009.63
2022-08-19T10:37:23.653Z,1009.58
2022-08-19T10:38:18.757Z,1009.59
2022-08-19T10:39:18.703Z,1009.56
2022-08-19T10:40:18.945Z,1009.70
2022-08-19T10:41:18.654Z,1009.82
2022-08-19T10:42:18.612Z,1009.80
2022-08-19T10:43:18.579Z,1009.57
2022-08-19T10:44:18.551Z,1009.56
2022-08-19T10:45:18.520Z,1009.54
2022-08-19T10:46:18.487Z,1009.56
2022-08-19T10:47:25.883Z,1009.99
2022-08-19T10:48:19.587Z,1010.03
2022-08-19T10:49:18.468Z,1010.04
2022-08-19T10:50:18.366Z,1009.66
2022-08-19T10:51:22.852Z,1009.62
2022-08-19T10:52:18.802Z,1009.91
2022-08-19T10:53:18.277Z,1009.99
2022-08-19T10:54:29.524Z,1009.57
2022-08-19T10:55:18.210Z,1009.55
2022-08-19T10:56:18.177Z,1009.55
2022-08-19T10:57:18.160Z,1009.55
2022-08-19T10:58:18.120Z,1009.60
2022-08-19T10:59:18.086Z,1009.55
2022-08-19T11:00:18.054Z,1009.55
2022-08-19T11:01:18.069Z,1009.52
2022-08-19T11:02:18.035Z,1009.55
2022-08-19T11:03:17.961Z,1009.50
2022-08-19T11:04:17.932Z,1009.53
2022-08-19T11:05:17.906Z,1009.55
2022-08-19T11:06:17.863Z,1009.55
2022-08-19T11:07:17.852Z,1009.66
2022-08-19T11:08:23.263Z,1009.45
2022-08-19T11:09:17.774Z,1009.44
2022-08-19T11:10:21.414Z,1009.51
2022-08-19T11:11:17.708Z,1009.52
2022-08-19T11:12:17.674Z,1009.71
2022-08-19T11:13:17.651Z,1009.59
2022-08-19T11:14:17.610Z,1009.68
2022-08-19T11:15:17.578Z,1009.77
2022-08-19T11:16:17.545Z,1009.79
2022-08-19T11:17:17.514Z,1009.56
2022-08-19T11:18:17.482Z,1009.84
2022-08-19T11:19:17.463Z,1009.88
2022-08-19T11:20:17.418Z,1009.89
2022-08-19T11:21:17.396Z,1009.97
2022-08-19T11:22:17.352Z,1009.99
2022-08-19T11:23:17.321Z,1010.08
2022-08-19T11:24:17.293Z,1010.07
2022-08-19T11:25:17.268Z,1010.05
2022-08-19T11:26:17.229Z,1009.98
2022-08-19T11:27:17.194Z,1009.98
2022-08-19T11:28:17.160Z,1009.97
2022-08-19T11:29:17.131Z,1010.02
2022-08-19T11:30:17.117Z,1010.06
2022-08-19T11:31:17.068Z,1010.06
2022-08-19T11:32:17.037Z,1010.06
2022-08-19T11:33:17.008Z,1010.07
2022-08-19T11:34:17.001Z,1010.11
2022-08-19T11:35:17.022Z,1010.14
2022-08-19T11:36:16.918Z,1010.05
2022-08-19T11:37:16.882Z,1010.05
2022-08-19T11:38:16.857Z,1010.02
2022-08-19T11:39:16.827Z,1009.95
2022-08-19T11:40:16.877Z,1009.97
2022-08-19T11:41:16.779Z,1010.05
2022-08-19T11:42:16.750Z,1010.03
2022-08-19T11:43:16.710Z,1009.89
2022-08-19T11:44:16.688Z,1009.34
2022-08-19T11:45:16.652Z,1009.36
2022-08-19T11:46:16.621Z,1009.35
2022-08-19T11:47:16.623Z,1009.32
2022-08-19T11:48:16.568Z,1009.72
2022-08-19T11:49:16.537Z,1009.47
2022-08-19T11:50:16.508Z,1009.38
2022-08-19T11:51:16.480Z,1009.32
2022-08-19T11:52:16.450Z,1009.43
2022-08-19T11:53:16.431Z,1009.33
2022-08-19T11:54:16.391Z,1009.31
2022-08-19T11:55:16.362Z,1009.64
2022-08-19T11:56:16.334Z,1009.88
2022-08-19T11:57:16.307Z,1009.92
2022-08-19T11:58:19.213Z,1009.91
2022-08-19T11:59:16.253Z,1009.89
2022-08-19T12:00:16.214Z,1009.94
2022-08-19T12:01:16.192Z,1009.97
2022-08-19T12:02:16.164Z,1009.34
2022-08-19T12:03:16.127Z,1009.32
2022-08-19T12:04:16.117Z,1009.32
2022-08-19T12:05:16.075Z,1009.35
2022-08-19T12:06:16.035Z,1009.36
2022-08-19T12:07:16.020Z,1009.32
2022-08-19T12:08:15.976Z,1009.75
2022-08-19T12:09:15.951Z,1009.80
2022-08-19T12:10:15.915Z,1009.81